createdAt,value
2022-11-15T00:03:21.245Z,3.72
2022-11-15T00:07:55.079Z,5.43
2022-11-15T00:12:16.235Z,3.50
2022-11-15T00:16:36.346Z,6.75
2022-11-15T00:21:03.523Z,3.53
2022-11-15T00:25:23.799Z,3.65
2022-11-15T00:29:44.336Z,3.95
2022-11-15T00:34:05.943Z,4.65
2022-11-15T00:38:25.871Z,3.28
2022-11-15T00:42:46.764Z,4.05
2022-11-15T00:47:07.167Z,3.63
2022-11-15T00:51:29.778Z,2.97
2022-11-15T00:55:50.524Z,3.45
2022-11-15T01:00:11.583Z,3.28
2022-11-15T01:04:31.703Z,2.10
2022-11-15T01:08:52.103Z,2.60
2022-11-15T01:13:12.124Z,3.50
2022-11-15T01:17:32.397Z,3.17
2022-11-15T01:21:52.913Z,4.32
2022-11-15T01:26:15.438Z,4.90
2022-11-15T01:30:37.074Z,4.47
2022-11-15T01:34:57.463Z,3.58
2022-11-15T01:39:18.030Z,4.95
2022-11-15T01:43:38.221Z,2.60
2022-11-15T01:47:58.506Z,3.97
2022-11-15T01:52:22.040Z,5.03
2022-11-15T01:56:49.584Z,5.57
2022-11-15T02:05:31.682Z,3.92
2022-11-15T02:09:52.770Z,4.95
2022-11-15T02:14:15.598Z,3.30
2022-11-15T02:18:42.804Z,3.88
2022-11-15T02:23:05.624Z,5.27
2022-11-15T02:27:53.659Z,4.35
2022-11-15T02:32:29.900Z,3.38
2022-11-15T02:37:38.179Z,4.18
2022-11-15T02:42:36.112Z,5.38
2022-11-15T02:47:13.529Z,4.05
2022-11-15T02:51:34.282Z,4.67
2022-11-15T02:55:57.573Z,3.70
2022-11-15T03:00:20.248Z,4.45
2022-11-15T03:05:02.936Z,2.85
2022-11-15T03:09:42.539Z,3.28
2022-11-15T03:14:11.637Z,3.55
2022-11-15T03:18:42.195Z,2.75
2022-11-15T03:23:06.855Z,6.65
2022-11-15T03:27:36.472Z,4.63
2022-11-15T03:32:04.015Z,3.97
2022-11-15T03:36:26.620Z,4.25
2022-11-15T03:40:55.523Z,4.10
2022-11-15T03:45:21.203Z,3.88
2022-11-15T03:49:50.510Z,3.47
2022-11-15T03:54:13.525Z,2.80
2022-11-15T03:58:33.975Z,2.33
2022-11-15T04:02:54.025Z,3.40
2022-11-15T04:07:14.364Z,4.95
2022-11-15T04:11:34.828Z,3.85
2022-11-15T04:15:55.442Z,3.67
2022-11-15T04:20:35.976Z,2.40
2022-11-15T04:24:56.453Z,2.25
2022-11-15T04:29:34.827Z,3.25
2022-11-15T04:33:55.319Z,4.40
2022-11-15T04:38:15.466Z,3.53
2022-11-15T04:42:36.225Z,3.33
2022-11-15T04:46:57.725Z,3.55
2022-11-15T04:51:18.084Z,3.25
2022-11-15T04:55:38.728Z,2.45
2022-11-15T04:59:58.888Z,2.55
2022-11-15T05:04:22.052Z,2.92
2022-11-15T05:08:42.126Z,2.72
2022-11-15T05:13:02.394Z,1.90
2022-11-15T05:17:22.363Z,3.63
2022-11-15T05:21:42.817Z,2.17
2022-11-15T05:26:09.025Z,2.03
2022-11-15T05:30:29.636Z,2.40
2022-11-15T05:34:50.248Z,2.75
2022-11-15T05:39:10.690Z,3.78
2022-11-15T05:43:34.581Z,4.50
2022-11-15T05:47:59.975Z,4.10
2022-11-15T05:52:25.427Z,3.92
2022-11-15T05:56:46.144Z,4.03
2022-11-15T06:01:06.706Z,2.50
2022-11-15T06:05:27.209Z,2.75
2022-11-15T06:09:47.635Z,3.22
2022-11-15T06:14:07.972Z,4.47
2022-11-15T06:18:28.126Z,5.93
2022-11-15T06:22:48.382Z,4.50
2022-11-15T06:27:08.626Z,3.03
2022-11-15T06:31:29.066Z,3.90
2022-11-15T06:35:49.157Z,3.03
2022-11-15T06:40:10.872Z,2.72
2022-11-15T06:44:31.137Z,2.97
2022-11-15T06:48:52.796Z,2.58
2022-11-15T06:53:13.247Z,2.95
2022-11-15T06:57:33.504Z,3.10
2022-11-15T07:01:53.688Z,4.97
2022-11-15T07:06:13.865Z,3.08
2022-11-15T07:10:33.824Z,2.63
2022-11-15T07:14:54.243Z,2.40
2022-11-15T07:19:14.362Z,4.57
2022-11-15T07:23:37.213Z,6.20
2022-11-15T07:28:00.869Z,4.60
2022-11-15T07:32:21.357Z,3.28
2022-11-15T07:36:41.457Z,4.22
2022-11-15T07:41:05.443Z,4.07
2022-11-15T07:45:28.994Z,4.18
2022-11-15T07:49:49.040Z,4.60
2022-11-15T07:54:09.200Z,5.13
2022-11-15T07:58:29.255Z,6.68
2022-11-15T08:02:49.444Z,7.13
2022-11-15T08:07:09.760Z,7.22
2022-11-15T08:11:30.232Z,7.30
2022-11-15T08:15:54.879Z,7.40
2022-11-15T08:24:38.877Z,11.63
2022-11-15T08:28:59.356Z,11.40
2022-11-15T08:33:19.483Z,7.65
2022-11-15T08:37:39.921Z,13.77
2022-11-15T08:42:00.265Z,11.52
2022-11-15T08:46:20.484Z,10.60
2022-11-15T08:50:40.740Z,13.15
2022-11-15T08:55:00.835Z,12.20
2022-11-15T08:59:21.042Z,9.07
2022-11-15T09:03:41.850Z,12.20
2022-11-15T09:08:06.560Z,15.55
2022-11-15T09:12:34.437Z,13.40
2022-11-15T09:16:54.406Z,15.52
2022-11-15T09:21:14.779Z,16.77
2022-11-15T09:25:35.274Z,14.68
2022-11-15T09:29:55.850Z,12.55
2022-11-15T09:34:16.104Z,12.45
2022-11-15T09:38:36.738Z,14.43
2022-11-15T09:43:34.358Z,13.07
2022-11-15T09:48:25.475Z,9.15
2022-11-15T09:52:56.468Z,14.07
2022-11-15T09:57:16.004Z,12.68
2022-11-15T10:01:42.205Z,8.07
2022-11-15T10:05:47.225Z,8.48
2022-11-15T10:09:54.127Z,13.63
2022-11-15T10:14:01.727Z,9.68
2022-11-15T10:18:09.798Z,11.20
2022-11-15T10:22:40.933Z,9.50
2022-11-15T10:26:49.844Z,9.40
2022-11-15T10:30:55.288Z,11.35
2022-11-15T10:35:39.108Z,9.48
2022-11-15T10:39:40.872Z,9.77
2022-11-15T10:43:43.012Z,13.25
2022-11-15T10:47:44.668Z,10.43
2022-11-15T10:51:49.920Z,10.48
2022-11-15T10:55:56.054Z,11.15
2022-11-15T11:00:01.980Z,10.73
2022-11-15T11:04:06.656Z,10.25
2022-11-15T11:08:11.968Z,12.35
2022-11-15T11:12:13.723Z,11.93
2022-11-15T11:16:20.351Z,9.40
2022-11-15T11:20:31.277Z,11.05
2022-11-15T11:24:50.448Z,10.18
2022-11-15T11:29:37.050Z,9.00
2022-11-15T11:34:05.897Z,9.80
2022-11-15T11:38:24.008Z,9.82
2022-11-15T11:42:44.483Z,10.15
2022-11-15T11:47:20.669Z,13.85
2022-11-15T11:51:29.767Z,11.43
2022-11-15T11:55:41.398Z,11.63
2022-11-15T11:59:54.278Z,9.73
2022-11-15T12:04:14.898Z,13.07
2022-11-15T12:08:24.194Z,12.80
2022-11-15T12:13:03.375Z,11.13
2022-11-15T12:17:05.476Z,11.52
2022-11-15T12:21:18.021Z,12.20
2022-11-15T12:25:26.249Z,10.88
2022-11-15T12:29:36.697Z,10.52
2022-11-15T12:33:42.935Z,9.23
2022-11-15T12:37:51.850Z,11.20
2022-11-15T12:41:56.526Z,10.25
2022-11-15T12:46:04.886Z,9.05
2022-11-15T12:50:14.729Z,9.80
2022-11-15T12:54:22.748Z,10.85
2022-11-15T12:58:39.632Z,8.43
2022-11-15T13:02:46.178Z,9.07
2022-11-15T13:07:08.686Z,9.88
2022-11-15T13:11:46.710Z,10.45
2022-11-15T13:15:57.842Z,7.82
2022-11-15T13:20:08.503Z,10.23
2022-11-15T13:24:20.152Z,9.90
2022-11-15T13:28:28.101Z,8.88
2022-11-15T13:32:29.852Z,10.85
2022-11-15T13:36:36.500Z,8.93
2022-11-15T13:44:40.304Z,10.55
2022-11-15T13:48:43.557Z,11.23
2022-11-15T13:53:11.091Z,8.68
2022-11-15T13:57:23.009Z,8.23
2022-11-15T14:01:29.181Z,8.43
2022-11-15T14:05:30.953Z,8.43
2022-11-15T14:09:36.824Z,12.20
2022-11-15T14:13:38.793Z,12.60
2022-11-15T14:17:45.691Z,12.25
2022-11-15T14:22:18.948Z,13.02
2022-11-15T14:27:19.651Z,15.07
2022-11-15T14:31:35.218Z,11.90
2022-11-15T14:35:39.546Z,14.02
2022-11-15T14:39:41.235Z,13.07
2022-11-15T14:43:42.937Z,9.60
2022-11-15T14:47:45.364Z,13.05
2022-11-15T14:51:47.011Z,12.10
2022-11-15T14:55:48.709Z,11.80
2022-11-15T14:59:50.645Z,12.60
2022-11-15T15:03:56.756Z,11.45
2022-11-15T15:07:58.682Z,8.77
2022-11-15T15:12:05.931Z,14.93
2022-11-15T15:16:08.074Z,15.27
2022-11-15T15:20:11.081Z,12.38
2022-11-15T15:24:15.961Z,11.73
2022-11-15T15:28:17.687Z,11.23
2022-11-15T15:32:20.215Z,11.32
2022-11-15T15:36:22.550Z,13.43
2022-11-15T15:40:25.846Z,13.52
2022-11-15T15:44:28.031Z,15.10
2022-11-15T15:48:30.041Z,13.82
2022-11-15T15:52:31.908Z,14.90
2022-11-15T15:56:33.553Z,14.02
2022-11-15T16:00:35.195Z,12.50
2022-11-15T16:04:36.819Z,13.35
2022-11-15T16:09:00.310Z,11.63
2022-11-15T16:13:00.174Z,9.15
2022-11-15T16:17:02.465Z,11.45
2022-11-15T16:21:04.123Z,10.32
2022-11-15T16:25:06.074Z,9.73
2022-11-15T16:29:10.214Z,9.68
2022-11-15T16:33:12.011Z,11.38
2022-11-15T16:37:23.648Z,13.20
2022-11-15T16:41:25.682Z,9.88
2022-11-15T16:45:29.264Z,10.27
2022-11-15T16:49:30.939Z,9.18
2022-11-15T16:53:32.715Z,6.13
2022-11-15T16:57:34.652Z,7.97
2022-11-15T17:01:46.882Z,12.52
2022-11-15T17:05:48.665Z,8.75
2022-11-15T17:09:50.359Z,9.38
2022-11-15T17:13:58.091Z,9.32
2022-11-15T17:18:00.676Z,10.43
2022-11-15T17:22:02.394Z,10.55
2022-11-15T17:26:28.252Z,11.05
2022-11-15T17:30:27.394Z,10.65
2022-11-15T17:34:29.075Z,9.50
2022-11-15T17:38:31.230Z,9.98
2022-11-15T17:42:33.290Z,10.77
2022-11-15T17:46:36.413Z,7.80
2022-11-15T17:50:38.062Z,9.07
2022-11-15T17:54:39.669Z,9.13
2022-11-15T17:58:42.038Z,9.25
2022-11-15T18:02:43.713Z,8.60
2022-11-15T18:06:45.637Z,7.45
2022-11-15T18:10:47.297Z,8.85
2022-11-15T18:14:49.003Z,8.40
2022-11-15T18:18:50.877Z,6.95
2022-11-15T18:22:54.315Z,10.50
2022-11-15T18:26:57.347Z,8.73
2022-11-15T18:31:00.053Z,7.55
2022-11-15T18:35:01.758Z,9.57
2022-11-15T18:39:04.565Z,9.32
2022-11-15T18:43:06.422Z,8.20
2022-11-15T18:47:08.322Z,5.18
2022-11-15T18:51:15.123Z,10.50
2022-11-15T18:55:16.865Z,6.95
2022-11-15T18:59:18.586Z,9.15
2022-11-15T19:03:23.566Z,8.95
2022-11-15T19:07:26.449Z,4.40
2022-11-15T19:11:33.281Z,8.63
2022-11-15T19:15:34.971Z,9.38
2022-11-15T19:19:36.670Z,7.03
2022-11-15T19:23:40.367Z,9.13
2022-11-15T19:27:42.005Z,8.65
2022-11-15T19:31:43.889Z,5.78
2022-11-15T19:35:45.988Z,9.88
2022-11-15T19:39:47.697Z,6.38
2022-11-15T19:43:52.958Z,5.95
2022-11-15T19:47:54.802Z,10.18
2022-11-15T19:51:56.491Z,8.73
2022-11-15T19:56:02.551Z,8.15
2022-11-15T20:00:07.602Z,8.70
2022-11-15T20:04:10.285Z,9.23
2022-11-15T20:08:12.110Z,7.70
2022-11-15T20:12:13.777Z,5.65
2022-11-15T20:16:20.848Z,8.40
2022-11-15T20:20:22.573Z,3.88
2022-11-15T20:24:24.219Z,8.90
2022-11-15T20:28:27.930Z,5.60
2022-11-15T20:32:31.397Z,4.95
2022-11-15T20:36:33.137Z,5.20
2022-11-15T20:40:35.159Z,8.60
2022-11-15T20:44:36.936Z,7.70
2022-11-15T20:48:38.948Z,6.05
2022-11-15T20:52:40.643Z,9.88
2022-11-15T20:56:42.337Z,9.10
2022-11-15T21:00:45.726Z,8.80
2022-11-15T21:04:47.503Z,7.82
2022-11-15T21:09:09.639Z,11.02
2022-11-15T21:13:11.434Z,8.90
2022-11-15T21:17:13.131Z,8.85
2022-11-15T21:21:15.077Z,5.78
2022-11-15T21:25:16.974Z,11.98
2022-11-15T21:29:18.897Z,7.18
2022-11-15T21:33:21.537Z,9.38
2022-11-15T21:37:23.234Z,8.80
2022-11-15T21:41:24.953Z,7.40
2022-11-15T21:45:26.663Z,4.57
2022-11-15T21:49:28.335Z,9.13
2022-11-15T21:53:31.714Z,7.70
2022-11-15T21:57:33.393Z,8.45
2022-11-15T22:01:53.696Z,6.57
2022-11-15T22:05:55.475Z,8.32
2022-11-15T22:09:58.868Z,6.35
2022-11-15T22:14:01.177Z,8.27
2022-11-15T22:18:02.956Z,4.53
2022-11-15T22:22:04.704Z,4.78
2022-11-15T22:26:07.862Z,8.88
2022-11-15T22:30:10.343Z,5.80
2022-11-15T22:34:12.122Z,8.60
2022-11-15T22:38:14.595Z,9.10
2022-11-15T22:42:19.423Z,9.32
2022-11-15T22:46:25.161Z,5.97
2022-11-15T22:50:26.928Z,7.30
2022-11-15T22:54:29.213Z,6.20
2022-11-15T22:58:33.005Z,10.70
2022-11-15T23:02:36.319Z,10.48
2022-11-15T23:06:38.118Z,8.98
2022-11-15T23:10:59.083Z,8.27
2022-11-15T23:15:00.865Z,12.77
2022-11-15T23:19:08.536Z,7.10
2022-11-15T23:23:10.549Z,6.80
2022-11-15T23:27:15.259Z,7.32
2022-11-15T23:31:35.560Z,8.30
2022-11-15T23:35:37.380Z,7.15
2022-11-15T23:39:39.334Z,6.55
2022-11-15T23:43:41.203Z,4.65
2022-11-15T23:47:43.906Z,7.68
2022-11-15T23:51:45.794Z,5.47
2022-11-15T23:55:58.037Z,7.30
